Time;durP1;ratioP1;P1;durP2;ratioP2;P2;SDS_P1;SDS_P2;PMS_P1;PMS_P2;Temp;Humidity;BMP_temperature;BMP_pressure;BME280_temperature;BME280_humidity;BME280_pressure;Samples;Min_cycle;Max_cycle;Signal;HPM_P1;HPM_P2
2022/09/29 00:00:29;;;;;;;5.00;4.35;;;;;;;14.55;53.48;98221.00;5094905;28;20047;-71
2022/09/29 00:02:55;;;;;;;9.00;4.75;;;;;;;14.42;54.12;98206.94;5044398;28;20039;-72
2022/09/29 00:05:21;;;;;;;9.93;5.85;;;;;;;14.46;54.36;98213.47;5094519;28;20036;-71
2022/09/29 00:07:47;;;;;;;7.43;5.53;;;;;;;14.49;54.37;98232.56;5061283;28;20059;-73
2022/09/29 00:10:13;;;;;;;8.43;4.80;;;;;;;14.47;53.64;98239.94;5078281;28;20044;-72
2022/09/29 00:12:39;;;;;;;12.48;6.50;;;;;;;14.50;54.10;98239.50;5078336;28;20505;-72
2022/09/29 00:15:06;;;;;;;10.48;6.25;;;;;;;14.62;54.32;98245.78;5077938;28;20044;-72
2022/09/29 00:17:32;;;;;;;8.02;6.40;;;;;;;14.54;54.82;98245.25;5095412;28;20044;-71
2022/09/29 00:19:57;;;;;;;9.32;5.88;;;;;;;14.35;54.73;98206.13;5095437;28;20051;-71
2022/09/29 00:22:23;;;;;;;7.55;5.32;;;;;;;14.41;54.44;98237.31;5062089;28;20355;-71
2022/09/29 00:24:49;;;;;;;4.43;3.70;;;;;;;14.51;53.15;98251.84;5096443;28;20540;-71
2022/09/29 00:27:15;;;;;;;7.22;4.30;;;;;;;14.55;53.15;98245.03;5079816;28;20055;-71
2022/09/29 00:29:41;;;;;;;9.57;4.28;;;;;;;14.53;53.20;98243.63;5078252;28;20036;-71
2022/09/29 00:32:07;;;;;;;8.50;4.50;;;;;;;14.47;53.90;98249.81;5060091;28;20054;-73
2022/09/29 00:34:33;;;;;;;5.93;4.50;;;;;;;14.45;54.00;98238.53;5075646;28;20434;-71
2022/09/29 00:36:59;;;;;;;9.55;4.82;;;;;;;14.45;54.06;98239.34;5075738;28;20078;-72
2022/09/29 00:39:25;;;;;;;7.05;4.72;;;;;;;14.45;54.07;98251.91;5092459;28;20040;-72
2022/09/29 00:41:51;;;;;;;9.07;5.30;;;;;;;14.44;54.25;98247.56;5075581;28;20348;-71
2022/09/29 00:44:18;;;;;;;6.50;4.82;;;;;;;14.40;54.15;98254.38;5059850;28;20107;-71
2022/09/29 00:47:03;;;;;;;8.10;5.38;;;;;;;14.71;54.00;98257.88;5077734;28;20100;-70
2022/09/29 00:49:38;;;;;;;9.07;5.13;;;;;;;14.45;54.22;98227.84;5062201;28;20036;-71
2022/09/29 00:52:14;;;;;;;10.20;5.32;;;;;;;14.60;53.99;98265.75;5112658;28;20051;-71
2022/09/29 00:54:46;;;;;;;9.32;5.60;;;;;;;14.50;53.60;98265.44;5060668;28;20044;-72
2022/09/29 00:57:18;;;;;;;11.00;5.97;;;;;;;14.39;53.90;98240.22;5078553;28;20620;-72
2022/09/29 00:59:48;;;;;;;9.50;5.90;;;;;;;14.54;54.49;98263.97;5044053;28;20047;-71
2022/09/29 01:02:16;;;;;;;10.02;5.88;;;;;;;14.36;55.21;98264.69;5094317;28;20305;-72
2022/09/29 01:04:42;;;;;;;8.52;5.82;;;;;;;14.29;55.42;98277.25;5077719;28;20147;-72
2022/09/29 01:07:08;;;;;;;11.63;7.03;;;;;;;14.45;55.65;98276.75;5077610;28;20576;-72
2022/09/29 01:09:36;;;;;;;13.43;7.10;;;;;;;14.25;56.03;98245.88;5060908;28;20048;-71
2022/09/29 01:12:03;;;;;;;16.25;8.35;;;;;;;14.26;56.24;98267.00;5077052;28;20043;-72
2022/09/29 01:14:30;;;;;;;17.83;8.20;;;;;;;14.31;56.75;98277.06;5094642;28;20142;-71
2022/09/29 01:16:56;;;;;;;15.13;8.45;;;;;;;14.13;56.86;98271.59;5095912;28;20063;-73
2022/09/29 01:19:50;;;;;;;19.80;7.78;;;;;;;14.51;56.01;98281.25;5065181;28;20446;-71
2022/09/29 01:22:18;;;;;;;15.40;7.32;;;;;;;14.44;55.74;98277.78;5064736;28;20055;-71
2022/09/29 01:24:56;;;;;;;15.05;7.25;;;;;;;14.41;56.30;98272.03;5080492;28;20061;-72
2022/09/29 01:27:40;;;;;;;14.23;7.65;;;;;;;14.38;56.37;98281.31;5098011;28;20485;-70
2022/09/29 01:30:22;;;;;;;12.25;7.60;;;;;;;14.33;56.52;98275.78;5080384;28;20192;-73
2022/09/29 01:33:06;;;;;;;16.27;7.90;;;;;;;14.40;56.45;98281.94;5064025;28;20126;-72
2022/09/29 01:35:41;;;;;;;12.93;7.82;;;;;;;14.36;56.45;98282.56;5097806;28;20143;-73
2022/09/29 01:38:17;;;;;;;15.77;8.27;;;;;;;14.30;56.45;98283.44;5098903;28;20058;-72
2022/09/29 01:40:57;;;;;;;13.75;7.25;;;;;;;14.33;56.42;98278.47;5082202;28;20393;-73
2022/09/29 01:43:26;;;;;;;16.55;7.82;;;;;;;14.22;57.14;98286.31;5047871;28;20036;-71
2022/09/29 01:46:24;;;;;;;13.73;8.32;;;;;;;14.23;57.09;98282.59;5064175;28;20047;-71
2022/09/29 01:48:52;;;;;;;15.48;8.38;;;;;;;14.17;57.50;98276.28;5088956;28;20134;-71
2022/09/29 01:51:24;;;;;;;22.10;9.43;;;;;;;14.02;57.61;98258.91;5115523;28;20072;-71
2022/09/29 01:53:53;;;;;;;20.05;8.57;;;;;;;14.04;57.31;98256.84;5080466;28;20050;-72
2022/09/29 01:56:29;;;;;;;14.77;9.13;;;;;;;14.24;57.18;98285.09;5080978;28;20062;-71
2022/09/29 01:59:03;;;;;;;17.25;9.15;;;;;;;14.32;57.17;98286.69;5060004;28;20063;-73
2022/09/29 02:01:33;;;;;;;13.80;8.55;;;;;;;14.19;57.11;98286.75;5046838;28;20079;-73
2022/09/29 02:04:10;;;;;;;13.93;7.72;;;;;;;14.25;57.36;98291.25;5064574;28;20138;-73
2022/09/29 02:06:40;;;;;;;16.75;8.90;;;;;;;14.16;57.32;98284.50;5080931;28;20040;-71
2022/09/29 02:09:15;;;;;;;19.13;8.65;;;;;;;14.21;57.25;98296.16;5081310;28;20035;-72
2022/09/29 02:11:41;;;;;;;16.45;8.43;;;;;;;14.09;57.38;98291.72;5098354;28;20139;-72
2022/09/29 02:14:13;;;;;;;19.02;9.55;;;;;;;14.25;57.36;98308.13;5114788;28;20044;-71
2022/09/29 02:16:48;;;;;;;14.05;8.48;;;;;;;14.11;57.62;98300.34;5080163;28;20523;-71
2022/09/29 02:19:17;;;;;;;14.55;8.65;;;;;;;14.14;57.58;98307.91;5061953;28;20039;-71
2022/09/29 02:21:43;;;;;;;17.63;10.60;;;;;;;13.86;57.77;98305.56;5113307;28;20055;-72
2022/09/29 02:24:10;;;;;;;29.40;16.80;;;;;;;14.09;57.52;98305.88;5077907;28;20050;-71
2022/09/29 02:26:37;;;;;;;37.95;21.48;;;;;;;13.99;57.91;98318.06;5062422;28;20043;-71
2022/09/29 02:29:04;;;;;;;42.25;31.08;;;;;;;14.05;57.88;98309.19;5060906;28;20051;-71
2022/09/29 02:31:31;;;;;;;42.38;30.75;;;;;;;14.14;57.65;98313.25;5077674;28;20382;-74
2022/09/29 02:33:58;;;;;;;45.50;36.30;;;;;;;14.00;57.64;98307.16;5078758;28;20040;-71
2022/09/29 02:37:00;;;;;;;37.13;26.60;;;;;;;14.36;57.04;98317.28;5080188;28;20191;-71
2022/09/29 02:39:54;;;;;;;35.83;23.48;;;;;;;14.33;56.95;98299.81;5080103;28;20092;-74
2022/09/29 02:42:25;;;;;;;25.10;16.35;;;;;;;14.35;57.07;98302.28;5063466;28;20122;-73
2022/09/29 02:44:51;;;;;;;19.95;14.90;;;;;;;13.87;57.98;98303.72;5064040;28;20105;-73
2022/09/29 02:47:46;;;;;;;19.17;12.65;;;;;;;14.12;57.82;98308.13;5061595;28;20047;-74
2022/09/29 02:50:20;;;;;;;20.90;12.20;;;;;;;14.24;57.57;98310.97;5060658;28;20048;-73
2022/09/29 02:52:52;;;;;;;17.55;10.32;;;;;;;14.35;57.18;98312.97;5060746;28;20032;-73
2022/09/29 02:55:56;;;;;;;12.82;7.97;;;;;;;14.44;56.71;98309.84;5081707;28;20059;-72
2022/09/29 02:59:01;;;;;;;15.55;8.73;;;;;;;14.42;56.50;98303.09;5097886;28;20079;-72
2022/09/29 03:01:32;;;;;;;11.15;7.70;;;;;;;14.40;56.55;98310.47;5097387;28;20062;-72
2022/09/29 03:03:59;;;;;;;17.00;8.27;;;;;;;13.99;57.25;98284.16;5060949;28;20473;-75
2022/09/29 03:06:26;;;;;;;11.10;8.02;;;;;;;14.16;57.32;98319.22;5093771;28;20043;-74
2022/09/29 03:08:52;;;;;;;13.32;7.80;;;;;;;13.86;57.56;98294.91;5094610;28;20039;-72
2022/09/29 03:11:18;;;;;;;16.42;8.10;;;;;;;13.90;57.71;98304.09;5093645;28;20496;-74
2022/09/29 03:13:44;;;;;;;18.33;7.75;;;;;;;14.00;57.55;98317.84;5044477;28;20548;-72
2022/09/29 03:16:10;;;;;;;11.68;7.43;;;;;;;13.86;57.77;98320.75;5044917;28;20491;-73
2022/09/29 03:18:36;;;;;;;11.38;7.72;;;;;;;13.86;57.76;98312.75;5078955;28;20049;-74
2022/09/29 03:21:02;;;;;;;12.05;7.53;;;;;;;13.92;57.59;98323.41;5095397;28;20047;-74
2022/09/29 03:23:28;;;;;;;12.40;7.63;;;;;;;13.90;57.79;98335.34;5095283;28;20496;-73
2022/09/29 03:25:54;;;;;;;13.02;7.60;;;;;;;13.88;57.97;98321.38;5044840;28;20376;-72
2022/09/29 03:28:21;;;;;;;12.20;7.43;;;;;;;14.04;57.58;98323.59;5095006;28;20458;-70
2022/09/29 03:30:47;;;;;;;10.27;7.10;;;;;;;14.12;57.49;98317.97;5078599;28;20044;-71
2022/09/29 03:33:14;;;;;;;10.52;6.90;;;;;;;14.09;57.03;98318.41;5096129;28;20393;-70
2022/09/29 03:35:40;;;;;;;12.05;6.72;;;;;;;14.31;56.77;98323.28;5079059;28;20048;-71
2022/09/29 03:38:08;;;;;;;8.27;7.00;;;;;;;14.34;56.49;98338.03;5078974;28;20051;-72
2022/09/29 03:40:34;;;;;;;23.77;7.18;;;;;;;14.11;56.67;98349.22;5078289;28;20079;-73
2022/09/29 03:43:00;;;;;;;12.13;6.20;;;;;;;14.10;56.90;98347.56;5078750;28;20062;-72
2022/09/29 03:45:26;;;;;;;11.30;7.35;;;;;;;14.16;57.05;98348.59;5061648;28;20537;-72
2022/09/29 03:47:51;;;;;;;11.65;7.38;;;;;;;14.26;56.33;98348.97;5061454;28;20093;-72
2022/09/29 03:50:17;;;;;;;13.30;7.35;;;;;;;14.36;56.47;98344.00;5078311;28;20054;-72
2022/09/29 03:52:43;;;;;;;12.43;6.47;;;;;;;14.38;56.21;98355.28;5061619;28;20044;-71
2022/09/29 03:55:09;;;;;;;15.30;7.20;;;;;;;14.34;56.36;98343.38;5078197;28;20051;-72
2022/09/29 03:57:34;;;;;;;14.05;6.93;;;;;;;14.40;56.27;98358.56;5061407;28;20059;-74
2022/09/29 04:00:00;;;;;;;12.15;7.00;;;;;;;14.36;56.19;98339.47;5062193;28;20048;-73
2022/09/29 04:02:26;;;;;;;10.70;6.93;;;;;;;14.39;56.39;98356.94;5045957;28;20040;-74
2022/09/29 04:04:52;;;;;;;16.52;7.07;;;;;;;14.41;56.17;98347.66;5063879;28;20058;-75
2022/09/29 04:07:17;;;;;;;11.43;6.50;;;;;;;14.51;56.00;98352.53;5047781;28;20043;-81
2022/09/29 04:09:43;;;;;;;10.23;6.35;;;;;;;14.54;55.60;98357.47;5059597;28;20488;-79
2022/09/29 04:12:09;;;;;;;13.23;6.20;;;;;;;14.53;55.64;98355.84;5076388;28;20047;-84
2022/09/29 04:14:35;;;;;;;11.55;6.53;;;;;;;14.56;55.72;98368.75;5062442;28;20032;-78
2022/09/29 04:17:01;;;;;;;10.88;6.20;;;;;;;14.58;55.46;98358.66;5095671;28;20043;-81
2022/09/29 04:19:26;;;;;;;11.27;5.97;;;;;;;14.67;55.35;98363.53;5063196;28;20040;-81
2022/09/29 04:21:52;;;;;;;7.82;5.90;;;;;;;14.68;55.33;98367.03;5063588;28;20066;-83
2022/09/29 04:24:18;;;;;;;9.68;5.78;;;;;;;14.69;54.54;98372.19;5067781;28;20039;-82
2022/09/29 04:26:44;;;;;;;10.80;5.70;;;;;;;14.72;54.88;98362.91;5063699;28;20043;-80
2022/09/29 04:29:10;;;;;;;7.65;5.32;;;;;;;14.78;54.66;98368.22;5096125;28;20039;-82
2022/09/29 04:31:35;;;;;;;6.68;5.10;;;;;;;14.81;54.42;98350.91;5060807;28;20054;-73
2022/09/29 04:34:01;;;;;;;9.43;5.10;;;;;;;14.69;54.57;98363.31;5061847;28;20074;-80
2022/09/29 04:36:27;;;;;;;12.30;5.50;;;;;;;14.64;54.34;98347.94;5078263;28;20058;-80
2022/09/29 04:38:53;;;;;;;8.80;5.13;;;;;;;14.69;54.53;98363.31;5044951;28;20039;-75
2022/09/29 04:41:19;;;;;;;9.15;4.90;;;;;;;14.83;53.94;98371.06;5112762;28;20040;-75
2022/09/29 04:43:45;;;;;;;11.35;5.28;;;;;;;14.94;54.09;98373.06;5060112;28;20051;-77
2022/09/29 04:46:11;;;;;;;12.30;5.40;;;;;;;15.02;53.67;98371.97;5077148;28;20100;-76
2022/09/29 04:48:37;;;;;;;6.72;5.15;;;;;;;15.08;53.33;98363.06;5059376;28;20505;-78
2022/09/29 04:51:03;;;;;;;11.93;5.20;;;;;;;15.15;53.44;98363.81;5060023;28;20043;-78
2022/09/29 04:53:29;;;;;;;8.07;5.03;;;;;;;15.16;53.06;98357.44;5064896;28;20043;-78
2022/09/29 04:55:55;;;;;;;10.65;5.20;;;;;;;15.21;52.57;98377.16;5064197;28;20042;-80
2022/09/29 04:58:21;;;;;;;7.22;4.80;;;;;;;15.16;52.88;98374.31;5065427;28;20074;-80
2022/09/29 05:00:46;;;;;;;11.63;5.53;;;;;;;15.15;53.04;98387.91;5063915;28;20435;-75
2022/09/29 05:03:12;;;;;;;9.27;5.45;;;;;;;15.15;53.23;98385.22;5057187;28;20383;-80
2022/09/29 05:05:38;;;;;;;15.13;5.97;;;;;;;15.09;53.31;98380.75;5062808;28;20386;-78
2022/09/29 05:08:04;;;;;;;9.27;5.78;;;;;;;15.14;53.37;98373.69;5027519;28;20472;-79
2022/09/29 05:10:30;;;;;;;8.82;5.50;;;;;;;15.12;53.65;98382.97;5044857;28;20040;-78
2022/09/29 05:12:58;;;;;;;17.30;5.80;;;;;;;15.06;53.89;98383.84;5063694;28;20047;-79
2022/09/29 05:15:24;;;;;;;17.52;5.82;;;;;;;15.05;53.62;98390.25;5065036;28;20043;-77
2022/09/29 05:17:50;;;;;;;17.08;6.85;;;;;;;14.92;53.97;98382.31;5029586;28;20040;-76
2022/09/29 05:20:16;;;;;;;23.30;7.38;;;;;;;14.86;54.61;98388.50;5046993;28;20059;-77
2022/09/29 05:22:41;;;;;;;19.38;7.45;;;;;;;14.74;54.70;98380.38;5068589;28;20051;-79
2022/09/29 05:25:08;;;;;;;21.38;7.65;;;;;;;14.82;55.22;98380.09;5048428;28;20039;-80
2022/09/29 05:27:36;;;;;;;14.95;7.63;;;;;;;15.00;55.17;98382.06;5032769;28;20040;-79
2022/09/29 05:30:03;;;;;;;15.90;7.10;;;;;;;14.88;55.15;98389.13;5061196;28;20040;-79
2022/09/29 05:32:30;;;;;;;18.80;7.20;;;;;;;14.80;55.02;98387.53;5061488;28;20063;-80
2022/09/29 05:34:56;;;;;;;11.98;7.15;;;;;;;14.83;55.16;98394.28;5029852;28;20390;-81
2022/09/29 05:37:22;;;;;;;12.43;7.38;;;;;;;14.73;55.04;98401.97;5095499;28;20047;-80
2022/09/29 05:39:48;;;;;;;9.75;7.25;;;;;;;14.65;55.38;98383.50;5045262;28;20052;-80
2022/09/29 05:42:14;;;;;;;10.60;7.30;;;;;;;14.72;55.18;98392.28;5045598;28;20203;-82
2022/09/29 05:44:39;;;;;;;9.60;6.90;;;;;;;14.85;54.86;98384.22;5045202;28;20417;-80
2022/09/29 05:47:05;;;;;;;13.77;7.43;;;;;;;14.99;54.32;98386.56;5044649;28;20044;-76
2022/09/29 05:49:32;;;;;;;10.57;7.03;;;;;;;15.16;54.33;98393.03;5044885;28;20055;-79
2022/09/29 05:51:58;;;;;;;9.18;6.95;;;;;;;15.15;54.21;98379.88;5062187;28;20076;-80
2022/09/29 05:54:26;;;;;;;13.98;7.82;;;;;;;15.22;54.22;98405.53;5061521;28;20040;-79
2022/09/29 05:56:52;;;;;;;11.00;7.85;;;;;;;15.10;54.34;98414.47;5044302;28;20460;-79
2022/09/29 05:59:18;;;;;;;11.82;7.68;;;;;;;15.01;54.53;98413.91;5031846;28;20070;-78
2022/09/29 06:01:44;;;;;;;13.73;8.10;;;;;;;15.05;54.61;98417.00;5046654;28;20039;-80
2022/09/29 06:04:12;;;;;;;13.50;7.75;;;;;;;14.97;54.77;98423.41;5064989;28;20040;-79
2022/09/29 06:06:39;;;;;;;11.95;8.30;;;;;;;14.91;54.77;98415.44;5073068;28;20052;-80
2022/09/29 06:09:05;;;;;;;13.20;8.02;;;;;;;14.97;54.70;98414.56;5066949;28;20572;-82
2022/09/29 06:11:32;;;;;;;11.80;8.43;;;;;;;14.93;55.24;98430.22;5082159;28;20039;-78
2022/09/29 06:13:58;;;;;;;12.75;8.35;;;;;;;14.89;55.32;98426.34;5066374;28;20039;-81
2022/09/29 06:16:25;;;;;;;10.75;7.82;;;;;;;14.97;55.22;98427.94;5047528;28;20479;-80
2022/09/29 06:18:52;;;;;;;13.98;7.88;;;;;;;15.00;54.67;98430.19;5064117;28;20082;-81
2022/09/29 06:21:20;;;;;;;19.92;9.38;;;;;;;15.08;55.00;98425.38;5066159;28;20476;-82
2022/09/29 06:23:46;;;;;;;15.90;9.35;;;;;;;15.23;54.70;98425.09;5066524;28;20418;-79
2022/09/29 06:26:13;;;;;;;16.90;9.20;;;;;;;15.44;54.24;98426.63;5082425;28;20073;-79
2022/09/29 06:28:39;;;;;;;14.20;8.65;;;;;;;15.48;53.73;98425.97;5049422;28;20119;-82
2022/09/29 06:31:08;;;;;;;15.93;8.90;;;;;;;15.83;53.29;98421.72;5083528;28;20705;-83
2022/09/29 06:33:35;;;;;;;16.55;8.95;;;;;;;15.99;52.75;98431.84;5084651;28;20040;-82
2022/09/29 06:39:10;;;;;;;14.68;9.02;;;;;;;16.29;52.01;98437.31;5081883;28;20047;-81
2022/09/29 06:41:36;;;;;;;19.42;10.23;;;;;;;16.08;51.46;98440.44;5082348;28;20142;-76
2022/09/29 06:44:02;;;;;;;16.95;9.70;;;;;;;16.20;51.84;98442.16;5049622;28;20071;-84
2022/09/29 06:46:28;;;;;;;20.98;9.77;;;;;;;16.03;51.83;98425.03;5049278;28;20522;-83
2022/09/29 06:48:54;;;;;;;16.98;10.38;;;;;;;16.17;51.85;98445.28;5046852;28;20138;-83
2022/09/29 06:51:23;;;;;;;18.95;10.75;;;;;;;16.44;51.25;98446.66;5082865;28;20045;-83
2022/09/29 06:53:49;;;;;;;16.67;10.80;;;;;;;16.58;51.02;98450.81;5066004;28;20051;-78
2022/09/29 06:56:16;;;;;;;18.98;10.45;;;;;;;16.80;50.67;98454.63;5082209;28;20051;-79
2022/09/29 06:58:42;;;;;;;17.42;10.60;;;;;;;16.67;50.68;98452.13;5097655;28;20039;-80
2022/09/29 07:01:09;;;;;;;22.60;9.63;;;;;;;16.87;50.13;98472.53;5062727;28;20162;-80
2022/09/29 07:03:35;;;;;;;30.85;10.38;;;;;;;16.50;50.57;98466.34;5062485;28;20079;-77
2022/09/29 07:06:03;;;;;;;25.27;10.05;;;;;;;16.70;50.83;98469.63;5080469;28;20070;-81
2022/09/29 07:08:30;;;;;;;19.65;9.98;;;;;;;16.50;51.02;98474.41;5075957;28;20115;-83
2022/09/29 07:10:56;;;;;;;18.52;9.55;;;;;;;16.63;51.01;98472.41;5095181;28;20050;-80
2022/09/29 07:13:22;;;;;;;18.42;10.18;;;;;;;16.50;51.24;98485.13;5046904;28;20093;-81
2022/09/29 07:15:48;;;;;;;20.75;10.15;;;;;;;16.42;51.35;98486.19;5045372;28;20040;-82
2022/09/29 07:18:13;;;;;;;19.73;10.63;;;;;;;16.38;51.47;98487.69;5060653;28;20342;-81
2022/09/29 07:20:39;;;;;;;25.90;11.20;;;;;;;16.21;51.48;98473.25;5046020;28;20051;-83
2022/09/29 07:23:07;;;;;;;27.92;11.98;;;;;;;16.30;52.01;98479.94;5044818;28;20142;-74
2022/09/29 07:25:33;;;;;;;24.73;11.23;;;;;;;16.18;52.10;98488.94;5093922;28;20115;-80
2022/09/29 07:28:03;;;;;;;27.63;11.60;;;;;;;16.09;52.39;98480.38;5079373;28;20043;-79
2022/09/29 07:30:30;;;;;;;27.08;10.02;;;;;;;16.07;53.02;98479.78;5067257;28;20050;-82
2022/09/29 07:32:57;;;;;;;21.15;11.00;;;;;;;16.10;52.42;98457.91;5084691;28;20039;-79
2022/09/29 07:35:23;;;;;;;23.35;11.02;;;;;;;16.42;52.28;98493.44;5077890;28;20043;-79
2022/09/29 07:37:55;;;;;;;21.55;10.40;;;;;;;16.50;52.16;98488.63;5061554;28;20047;-77
2022/09/29 07:40:22;;;;;;;21.08;9.48;;;;;;;16.41;52.31;98507.88;5079378;28;20073;-79
2022/09/29 07:42:48;;;;;;;16.70;9.57;;;;;;;16.09;52.86;98488.41;5064715;28;20032;-77
2022/09/29 07:45:16;;;;;;;14.68;8.95;;;;;;;16.26;53.41;98500.19;5048430;28;20044;-80
2022/09/29 07:47:42;;;;;;;21.50;9.32;;;;;;;16.04;53.40;98476.72;5113451;28;20473;-78
2022/09/29 07:50:10;;;;;;;17.08;9.38;;;;;;;16.37;53.03;98493.28;5049304;28;20039;-82
2022/09/29 07:52:36;;;;;;;14.27;8.60;;;;;;;16.49;52.56;98511.13;5049931;28;20051;-78
2022/09/29 07:55:07;;;;;;;19.13;9.13;;;;;;;16.64;52.52;98508.88;5044357;28;20520;-80
2022/09/29 07:57:33;;;;;;;20.85;9.30;;;;;;;16.74;52.09;98509.16;5073842;28;20039;-77
2022/09/29 07:59:59;;;;;;;16.05;8.55;;;;;;;16.67;51.90;98511.13;5065484;28;20055;-77
2022/09/29 08:02:25;;;;;;;16.27;9.57;;;;;;;16.75;52.23;98515.34;5075490;28;20048;-79
2022/09/29 08:04:50;;;;;;;16.00;9.25;;;;;;;16.80;52.05;98519.00;5073674;28;20039;-78
2022/09/29 08:07:16;;;;;;;14.75;8.73;;;;;;;16.88;51.89;98522.44;5066757;28;20048;-80
2022/09/29 08:09:42;;;;;;;19.63;9.65;;;;;;;16.92;51.91;98520.91;5059561;28;20040;-76
2022/09/29 08:12:08;;;;;;;19.73;8.63;;;;;;;17.13;51.74;98523.16;5044509;28;20089;-76
2022/09/29 08:14:34;;;;;;;18.60;9.32;;;;;;;17.02;51.70;98538.13;5095461;28;20043;-76
2022/09/29 08:17:00;;;;;;;12.95;8.52;;;;;;;16.95;52.15;98563.38;5056062;28;20044;-77
2022/09/29 08:19:27;;;;;;;13.25;8.95;;;;;;;16.78;52.44;98545.22;5022970;28;20792;-77
2022/09/29 08:21:56;;;;;;;14.55;9.25;;;;;;;16.79;52.64;98546.03;5043264;28;20589;-77
2022/09/29 08:24:22;;;;;;;15.93;9.38;;;;;;;16.92;52.23;98545.88;5030522;28;20051;-77
2022/09/29 08:26:48;;;;;;;18.20;9.05;;;;;;;16.89;52.39;98546.34;5071691;28;20054;-76
2022/09/29 08:29:14;;;;;;;14.50;8.98;;;;;;;16.99;52.18;98535.09;5062283;28;20130;-76
2022/09/29 08:31:39;;;;;;;22.98;14.18;;;;;;;17.20;52.00;98545.31;5065552;28;20470;-77
2022/09/29 08:34:08;;;;;;;15.95;9.80;;;;;;;17.27;51.74;98564.84;5050481;28;20138;-76
2022/09/29 08:36:35;;;;;;;13.55;8.68;;;;;;;16.88;52.47;98585.72;5051423;28;20138;-78
2022/09/29 08:39:01;;;;;;;15.70;8.88;;;;;;;16.60;53.47;98580.09;5067882;28;20115;-78
2022/09/29 08:41:27;;;;;;;15.00;8.93;;;;;;;16.26;54.62;98561.81;5084366;28;20059;-76
2022/09/29 08:44:00;;;;;;;14.68;9.07;;;;;;;16.58;54.74;98594.72;5084695;28;20051;-78
2022/09/29 08:46:31;;;;;;;15.95;9.82;;;;;;;16.56;54.92;98572.69;5085735;28;20063;-77
2022/09/29 08:49:01;;;;;;;15.73;9.73;;;;;;;16.51;55.11;98564.50;5069264;28;20042;-79
2022/09/29 08:51:48;;;;;;;18.33;9.35;;;;;;;16.98;54.13;98576.34;5068502;28;20054;-77
2022/09/29 08:54:26;;;;;;;14.75;8.85;;;;;;;17.27;53.27;98579.06;5102253;28;20051;-77
2022/09/29 08:56:52;;;;;;;19.60;8.80;;;;;;;17.17;53.09;98573.44;5101522;28;20036;-77
2022/09/29 08:59:18;;;;;;;13.90;8.73;;;;;;;17.18;53.00;98576.94;5050343;28;20047;-76
2022/09/29 09:01:50;;;;;;;23.20;9.90;;;;;;;17.18;52.74;98584.97;5049947;28;20036;-76
2022/09/29 09:04:19;;;;;;;14.90;9.00;;;;;;;17.06;53.17;98581.41;5083713;28;20059;-75
2022/09/29 09:06:53;;;;;;;14.27;9.48;;;;;;;17.19;53.41;98567.84;5067662;28;20085;-76
2022/09/29 09:09:31;;;;;;;15.20;9.30;;;;;;;16.92;53.66;98550.41;5082871;28;20048;-79
2022/09/29 09:12:01;;;;;;;16.90;9.23;;;;;;;17.05;54.43;98594.03;5046018;28;20043;-78
2022/09/29 09:14:54;;;;;;;16.77;10.68;;;;;;;16.77;54.99;98575.75;5081431;28;20117;-77
2022/09/29 09:17:44;;;;;;;17.20;10.20;;;;;;;16.93;54.74;98598.47;5067290;28;20096;-78
2022/09/29 09:20:23;;;;;;;18.77;10.98;;;;;;;16.83;54.93;98590.97;5052146;28;20093;-81
2022/09/29 09:22:58;;;;;;;18.10;10.68;;;;;;;16.90;54.96;98582.84;5082028;28;20447;-78
2022/09/29 09:25:40;;;;;;;20.55;11.45;;;;;;;16.86;55.36;98592.38;5030237;28;20123;-78
2022/09/29 09:28:21;;;;;;;16.33;11.00;;;;;;;17.04;54.65;98591.53;5046443;28;20050;-82
2022/09/29 09:30:56;;;;;;;20.55;12.07;;;;;;;17.07;54.51;98596.50;5032381;28;20097;-80
2022/09/29 09:33:33;;;;;;;20.70;11.68;;;;;;;17.04;55.13;98607.63;5105654;28;20046;-82
2022/09/29 09:36:09;;;;;;;18.92;12.18;;;;;;;16.93;54.81;98593.09;5085853;28;20047;-81
2022/09/29 09:38:50;;;;;;;24.00;14.32;;;;;;;16.94;54.86;98588.56;5065078;28;20130;-79
2022/09/29 09:41:19;;;;;;;24.48;12.63;;;;;;;16.93;55.00;98598.47;5067978;28;20050;-82
2022/09/29 09:43:49;;;;;;;18.83;11.95;;;;;;;17.11;54.83;98603.84;5049148;28;20043;-81
2022/09/29 09:46:32;;;;;;;18.55;11.77;;;;;;;17.25;54.40;98620.63;5081841;28;20205;-81
2022/09/29 09:49:10;;;;;;;22.38;11.90;;;;;;;17.16;54.93;98612.03;5064137;28;20420;-81
2022/09/29 09:52:13;;;;;;;19.92;10.40;;;;;;;17.27;54.33;98605.09;5047947;28;20057;-80
2022/09/29 09:54:46;;;;;;;21.33;12.20;;;;;;;17.24;54.78;98609.06;5064519;28;20051;-79
2022/09/29 09:57:15;;;;;;;19.00;11.23;;;;;;;17.15;54.38;98598.84;5045028;28;20048;-81
2022/09/29 10:00:16;;;;;;;20.02;10.68;;;;;;;17.48;54.08;98599.28;5044172;28;20113;-82
2022/09/29 10:02:48;;;;;;;;;;;;;;;17.71;53.16;98610.13;5024770;28;20040;-79
2022/09/29 10:05:25;;;;;;;22.70;11.98;;;;;;;17.54;53.79;98609.13;5093042;28;19928;-77
2022/09/29 10:07:52;;;;;;;20.70;11.90;;;;;;;17.37;54.37;98605.38;5078293;28;20133;-79
2022/09/29 10:10:25;;;;;;;28.77;12.38;;;;;;;17.56;53.81;98605.16;5061956;28;20382;-78
2022/09/29 10:13:04;;;;;;;21.58;12.48;;;;;;;17.54;54.04;98601.91;5073135;28;20043;-77
2022/09/29 10:15:37;;;;;;;20.08;11.98;;;;;;;17.54;54.05;98609.13;5099749;28;20442;-80
2022/09/29 10:18:12;;;;;;;23.25;11.50;;;;;;;17.43;53.97;98585.69;5044150;28;20113;-82
2022/09/29 10:20:41;;;;;;;20.50;11.40;;;;;;;17.42;54.09;98619.75;5098247;28;20043;-74
2022/09/29 10:23:29;;;;;;;23.27;12.38;;;;;;;17.70;53.39;98621.88;5060856;28;20138;-76
2022/09/29 10:26:21;;;;;;;20.05;11.40;;;;;;;17.80;53.22;98643.66;5091679;28;20051;-81
2022/09/29 10:28:58;;;;;;;19.88;11.25;;;;;;;17.68;53.46;98635.53;5094518;28;20036;-81
2022/09/29 10:31:36;;;;;;;20.63;11.73;;;;;;;17.48;53.64;98610.81;5074054;28;20389;-79
2022/09/29 10:34:14;;;;;;;18.50;11.68;;;;;;;17.76;53.54;98642.50;5060378;28;20244;-78
2022/09/29 10:36:53;;;;;;;24.52;10.77;;;;;;;17.67;53.86;98630.41;5046593;28;20213;-80
2022/09/29 10:39:41;;;;;;;22.20;10.77;;;;;;;17.69;53.33;98634.53;5081522;28;20382;-84
2022/09/29 10:42:34;;;;;;;20.95;10.77;;;;;;;17.75;53.75;98657.78;5055816;28;20027;-77
2022/09/29 10:45:20;;;;;;;20.48;10.52;;;;;;;17.85;53.71;98665.28;5081714;28;20055;-81
2022/09/29 10:47:58;;;;;;;21.65;10.30;;;;;;;17.84;53.98;98664.47;5064834;28;20058;-81
2022/09/29 10:50:33;;;;;;;18.35;10.98;;;;;;;17.72;53.83;98674.34;5081841;28;20035;-82
2022/09/29 10:53:05;;;;;;;19.23;10.30;;;;;;;17.72;53.85;98677.03;5090817;28;20043;-80
2022/09/29 10:55:38;;;;;;;20.45;10.48;;;;;;;17.79;53.57;98685.00;5071336;28;20039;-81
2022/09/29 10:58:23;;;;;;;22.67;10.80;;;;;;;17.94;53.39;98693.47;5103385;28;20039;-79
2022/09/29 11:00:48;;;;;;;18.77;9.35;;;;;;;17.51;54.29;98690.94;5065575;28;20050;-80
2022/09/29 11:03:26;;;;;;;18.77;10.45;;;;;;;17.78;53.96;98697.59;5050448;28;20040;-81
2022/09/29 11:05:58;;;;;;;14.82;9.35;;;;;;;17.72;54.06;98703.06;5070102;28;20043;-86
2022/09/29 11:08:26;;;;;;;19.13;8.95;;;;;;;17.64;54.45;98698.81;5052822;28;20047;-85
2022/09/29 11:11:02;;;;;;;16.90;7.97;;;;;;;18.20;53.37;98712.72;5088071;28;20036;-82
2022/09/29 11:13:44;;;;;;;11.07;6.78;;;;;;;18.83;50.99;98702.25;5083546;28;20035;-82
2022/09/29 11:16:18;;;;;;;11.90;6.80;;;;;;;19.69;49.41;98696.91;5083512;28;20069;-82
2022/09/29 11:18:48;;;;;;;12.07;6.10;;;;;;;20.73;46.41;98664.00;5082691;28;20073;-81
2022/09/29 11:21:21;;;;;;;11.85;5.70;;;;;;;21.83;43.54;98722.34;5052058;28;20060;-82
2022/09/29 11:24:16;;;;;;;10.15;6.03;;;;;;;21.82;41.92;98726.09;5084490;28;20059;-81
2022/09/29 11:26:45;;;;;;;12.60;5.68;;;;;;;21.22;43.29;98727.94;5083842;28;20050;-82
2022/09/29 11:29:31;;;;;;;12.90;6.10;;;;;;;21.52;42.96;98725.69;5065455;28;20058;-82
2022/09/29 11:32:23;;;;;;;8.95;5.75;;;;;;;21.65;42.29;98725.31;5044577;28;20055;-83
2022/09/29 11:35:16;;;;;;;8.27;5.88;;;;;;;22.05;40.66;98728.53;5067674;28;20048;-84
2022/09/29 11:38:18;;;;;;;13.95;6.20;;;;;;;22.56;40.02;98738.84;5048556;28;20039;-82
2022/09/29 11:41:08;;;;;;;9.82;6.57;;;;;;;22.58;40.04;98741.28;5065419;28;20099;-83
2022/09/29 11:43:47;;;;;;;12.53;6.93;;;;;;;22.48;39.84;98723.03;5044689;28;20054;-81